createdAt,value
2019-04-05T00:00:33.284Z,5.63
2019-04-05T00:01:33.408Z,5.63
2019-04-05T00:02:33.268Z,5.63
2019-04-05T00:03:33.344Z,5.65
2019-04-05T00:04:33.249Z,5.65
2019-04-05T00:05:33.342Z,5.59
2019-04-05T00:06:33.228Z,5.59
2019-04-05T00:07:33.238Z,5.59
2019-04-05T00:08:33.233Z,5.66
2019-04-05T00:09:33.257Z,5.65
2019-04-05T00:10:33.183Z,5.63
2019-04-05T00:11:33.275Z,5.65
2019-04-05T00:12:33.166Z,5.49
2019-04-05T00:13:33.206Z,5.62
2019-04-05T00:14:33.138Z,5.65
2019-04-05T00:15:33.193Z,5.59
2019-04-05T00:16:33.117Z,5.55
2019-04-05T00:17:33.208Z,5.59
2019-04-05T00:18:33.222Z,5.52
2019-04-05T00:19:33.123Z,5.55
2019-04-05T00:20:33.083Z,5.52
2019-04-05T00:21:33.140Z,5.62
2019-04-05T00:22:33.060Z,5.52
2019-04-05T00:23:33.176Z,5.58
2019-04-05T00:24:33.052Z,5.58
2019-04-05T00:25:33.063Z,5.60
2019-04-05T00:26:33.023Z,5.58
2019-04-05T00:27:33.083Z,5.52
2019-04-05T00:28:32.996Z,5.45
2019-04-05T00:29:33.123Z,5.56
2019-04-05T00:30:33.098Z,5.55
2019-04-05T00:31:32.997Z,5.55
2019-04-05T00:32:32.998Z,5.44
2019-04-05T00:33:33.040Z,5.48
2019-04-05T00:34:32.997Z,5.45
2019-04-05T00:35:33.066Z,5.49
2019-04-05T00:36:32.910Z,5.49
2019-04-05T00:37:32.937Z,5.52
2019-04-05T00:38:32.890Z,5.52
2019-04-05T00:39:34.005Z,5.56
2019-04-05T00:40:32.859Z,5.38
2019-04-05T00:41:33.255Z,5.52
2019-04-05T00:42:32.835Z,5.44
2019-04-05T00:43:32.884Z,5.55
2019-04-05T00:44:32.864Z,5.49
2019-04-05T00:45:32.899Z,5.48
2019-04-05T00:46:32.801Z,5.48
2019-04-05T00:47:32.901Z,5.45
2019-04-05T00:48:32.793Z,5.48
2019-04-05T00:49:32.850Z,5.48
2019-04-05T00:50:32.754Z,5.42
2019-04-05T00:51:32.827Z,5.42
2019-04-05T00:52:32.734Z,5.48
2019-04-05T00:53:32.845Z,5.51
2019-04-05T00:54:32.752Z,5.47
2019-04-05T00:55:32.756Z,5.48
2019-04-05T00:56:32.689Z,5.45
2019-04-05T00:57:32.764Z,5.48
2019-04-05T00:58:32.667Z,5.42
2019-04-05T00:59:32.710Z,5.42
2019-04-05T01:00:32.648Z,5.51
2019-04-05T01:01:32.693Z,5.41
2019-04-05T01:02:32.624Z,5.41
2019-04-05T01:03:32.712Z,5.42
2019-04-05T01:04:32.655Z,5.37
2019-04-05T01:05:32.647Z,5.37
2019-04-05T01:06:32.589Z,5.38
2019-04-05T01:07:32.632Z,5.44
2019-04-05T01:08:32.560Z,5.40
2019-04-05T01:09:32.673Z,5.40
2019-04-05T01:10:32.564Z,5.41
2019-04-05T01:11:32.555Z,5.41
2019-04-05T01:12:33.012Z,5.38
2019-04-05T01:13:32.575Z,5.40
2019-04-05T01:14:32.497Z,5.41
2019-04-05T01:15:40.693Z,5.40
2019-04-05T01:16:33.473Z,5.44
2019-04-05T01:17:32.502Z,5.41
2019-04-05T01:18:32.455Z,5.47
2019-04-05T01:19:32.513Z,5.48
2019-04-05T01:20:32.453Z,5.44
2019-04-05T01:21:32.523Z,5.49
2019-04-05T01:22:32.412Z,5.49
2019-04-05T01:23:32.443Z,5.42
2019-04-05T01:24:32.402Z,5.48
2019-04-05T01:25:33.507Z,5.44
2019-04-05T01:26:32.367Z,5.45
2019-04-05T01:27:32.465Z,5.45
2019-04-05T01:28:32.349Z,5.45
2019-04-05T01:29:32.394Z,5.47
2019-04-05T01:30:32.367Z,5.44
2019-04-05T01:31:32.388Z,5.48
2019-04-05T01:32:32.299Z,5.51
2019-04-05T01:33:32.404Z,5.44
2019-04-05T01:34:32.312Z,5.48
2019-04-05T01:35:32.316Z,5.51
2019-04-05T01:36:32.285Z,5.42
2019-04-05T01:37:32.330Z,5.47
2019-04-05T01:38:32.243Z,5.47
2019-04-05T01:39:32.340Z,5.48
2019-04-05T01:40:32.215Z,5.47
2019-04-05T01:41:32.287Z,5.48
2019-04-05T01:42:32.199Z,5.45
2019-04-05T01:43:32.271Z,5.47
2019-04-05T01:44:32.183Z,5.44
2019-04-05T01:45:32.280Z,5.47
2019-04-05T01:46:32.175Z,5.45
2019-04-05T01:47:32.195Z,5.45
2019-04-05T01:48:32.131Z,5.45
2019-04-05T01:49:32.207Z,5.49
2019-04-05T01:50:32.111Z,5.47
2019-04-05T01:51:32.156Z,5.55
2019-04-05T01:52:32.127Z,5.45
2019-04-05T01:53:32.131Z,5.45
2019-04-05T01:54:32.075Z,5.51
2019-04-05T01:55:32.151Z,5.47
2019-04-05T01:56:32.079Z,5.47
2019-04-05T01:57:32.061Z,5.49
2019-04-05T01:58:32.030Z,5.42
2019-04-05T01:59:32.082Z,5.51
2019-04-05T02:00:32.005Z,5.47
2019-04-05T02:01:32.121Z,5.48
2019-04-05T02:02:31.983Z,5.44
2019-04-05T02:03:31.996Z,5.48
2019-04-05T02:04:31.964Z,5.44
2019-04-05T02:05:32.013Z,5.44
2019-04-05T02:06:31.977Z,5.45
2019-04-05T02:07:32.024Z,5.48
2019-04-05T02:08:31.923Z,5.51
2019-04-05T02:09:31.936Z,5.52
2019-04-05T02:10:31.897Z,5.55
2019-04-05T02:11:33.002Z,5.51
2019-04-05T02:12:31.913Z,5.45
2019-04-05T02:13:31.962Z,5.52
2019-04-05T02:14:31.863Z,5.51
2019-04-05T02:15:31.876Z,5.58
2019-04-05T02:16:31.868Z,5.47
2019-04-05T02:17:35.710Z,5.58
2019-04-05T02:18:31.808Z,5.60
2019-04-05T02:19:31.902Z,5.56
2019-04-05T02:20:31.795Z,5.56
2019-04-05T02:21:31.849Z,5.58
2019-04-05T02:22:31.789Z,5.55
2019-04-05T02:23:31.836Z,5.58
2019-04-05T02:24:31.756Z,5.52
2019-04-05T02:25:31.847Z,5.60
2019-04-05T02:26:31.729Z,5.52
2019-04-05T02:27:31.786Z,5.59
2019-04-05T02:28:31.705Z,5.60
2019-04-05T02:29:31.771Z,5.62
2019-04-05T02:30:31.803Z,5.62
2019-04-05T02:31:31.794Z,5.62
2019-04-05T02:32:31.690Z,5.48
2019-04-05T02:33:31.717Z,5.52
2019-04-05T02:34:31.645Z,5.55
2019-04-05T02:35:31.720Z,5.55
2019-04-05T02:36:31.618Z,5.60
2019-04-05T02:37:31.764Z,5.59
2019-04-05T02:38:31.598Z,5.49
2019-04-05T02:39:31.652Z,5.52
2019-04-05T02:40:31.586Z,5.55
2019-04-05T02:41:31.653Z,5.62
2019-04-05T02:42:31.580Z,5.56
2019-04-05T02:43:31.697Z,5.65
2019-04-05T02:44:31.536Z,5.58
2019-04-05T02:45:31.592Z,5.58
2019-04-05T02:46:31.513Z,5.51
2019-04-05T02:47:31.591Z,5.58
2019-04-05T02:48:31.522Z,5.56
2019-04-05T02:49:31.604Z,5.51
2019-04-05T02:50:31.464Z,5.56
2019-04-05T02:51:31.534Z,5.51
2019-04-05T02:52:31.448Z,5.45
2019-04-05T02:53:31.554Z,5.49
2019-04-05T02:54:31.494Z,5.59
2019-04-05T02:55:31.545Z,5.49
2019-04-05T02:56:31.423Z,5.55
2019-04-05T02:57:31.453Z,5.49
2019-04-05T02:58:31.418Z,5.49
2019-04-05T02:59:31.476Z,5.45
2019-04-05T03:00:31.380Z,5.56
2019-04-05T03:01:31.378Z,5.47
2019-04-05T03:02:31.344Z,5.45
2019-04-05T03:03:31.526Z,5.49
2019-04-05T03:04:31.321Z,5.47
2019-04-05T03:05:31.421Z,5.48
2019-04-05T03:06:31.319Z,5.48
2019-04-05T03:07:31.326Z,5.51
2019-04-05T03:08:31.321Z,5.47
2019-04-05T03:09:31.334Z,5.51
2019-04-05T03:10:31.254Z,5.49
2019-04-05T03:11:31.346Z,5.44
2019-04-05T03:12:31.241Z,5.47
2019-04-05T03:13:31.270Z,5.41
2019-04-05T03:14:31.270Z,5.42
2019-04-05T03:15:31.277Z,5.44
2019-04-05T03:16:40.039Z,5.44
2019-04-05T03:17:32.188Z,5.48
2019-04-05T03:18:31.308Z,5.45
2019-04-05T03:19:31.350Z,5.44
2019-04-05T03:20:31.204Z,5.49
2019-04-05T03:21:31.197Z,5.44
2019-04-05T03:22:31.225Z,5.47
2019-04-05T03:23:31.123Z,5.52
2019-04-05T03:24:31.188Z,5.49
2019-04-05T03:25:31.091Z,5.48
2019-04-05T03:26:31.152Z,5.55
2019-04-05T03:27:31.075Z,5.45
2019-04-05T03:28:31.162Z,5.48
2019-04-05T03:29:31.082Z,5.47
2019-04-05T03:30:31.082Z,5.44
2019-04-05T03:31:31.047Z,5.47
2019-04-05T03:32:31.087Z,5.42
2019-04-05T03:33:31.046Z,5.45
2019-04-05T03:34:31.137Z,5.45
2019-04-05T03:35:30.991Z,5.49
2019-04-05T03:36:31.013Z,5.45
2019-04-05T03:37:30.978Z,5.42
2019-04-05T03:38:31.032Z,5.48
2019-04-05T03:39:31.107Z,5.47
2019-04-05T03:40:31.065Z,5.48
2019-04-05T03:41:30.925Z,5.51
2019-04-05T03:42:30.955Z,5.49
2019-04-05T03:43:30.904Z,5.48
2019-04-05T03:44:30.975Z,5.47
2019-04-05T03:45:30.909Z,5.48
2019-04-05T03:46:30.985Z,5.48
2019-04-05T03:47:30.864Z,5.47
2019-04-05T03:48:30.897Z,5.51
2019-04-05T03:49:30.838Z,5.49
2019-04-05T03:50:30.936Z,5.42
2019-04-05T03:51:30.842Z,5.48
2019-04-05T03:52:30.946Z,5.48
2019-04-05T03:53:30.815Z,5.55
2019-04-05T03:54:30.839Z,5.48
2019-04-05T03:55:30.805Z,5.45
2019-04-05T03:56:30.844Z,5.48
2019-04-05T03:57:30.769Z,5.48
2019-04-05T03:58:30.853Z,5.51
2019-04-05T03:59:30.738Z,5.49
2019-04-05T04:00:30.808Z,5.55
2019-04-05T04:01:30.713Z,5.51
2019-04-05T04:02:30.792Z,5.56
2019-04-05T04:03:30.692Z,5.49
2019-04-05T04:04:30.796Z,5.49
2019-04-05T04:05:30.711Z,5.52
2019-04-05T04:06:30.711Z,5.41
2019-04-05T04:07:30.651Z,5.42
2019-04-05T04:08:30.720Z,5.44
2019-04-05T04:09:30.629Z,5.55
2019-04-05T04:10:30.772Z,5.56
2019-04-05T04:11:30.604Z,5.49
2019-04-05T04:12:30.648Z,5.51
2019-04-05T04:13:30.586Z,5.49
2019-04-05T04:14:30.674Z,5.55
2019-04-05T04:15:30.567Z,5.58
2019-04-05T04:16:30.714Z,5.49
2019-04-05T04:17:30.538Z,5.51
2019-04-05T04:18:30.587Z,5.51
2019-04-05T04:19:30.532Z,5.45
2019-04-05T04:20:30.615Z,5.55
2019-04-05T04:21:30.525Z,5.48
2019-04-05T04:22:30.614Z,5.51
2019-04-05T04:23:30.489Z,5.51
2019-04-05T04:24:30.527Z,5.52
2019-04-05T04:25:30.451Z,5.47
2019-04-05T04:26:30.568Z,5.45
2019-04-05T04:27:30.458Z,5.52
2019-04-05T04:28:30.454Z,5.51
2019-04-05T04:29:30.414Z,5.48
2019-04-05T04:30:30.476Z,5.42
2019-04-05T04:31:30.419Z,5.45
2019-04-05T04:32:30.477Z,5.48
2019-04-05T04:33:30.370Z,5.48
2019-04-05T04:34:30.393Z,5.49
2019-04-05T04:35:30.355Z,5.48
2019-04-05T04:36:30.440Z,5.47
2019-04-05T04:37:30.324Z,5.42
2019-04-05T04:38:30.426Z,5.48
2019-04-05T04:39:30.315Z,5.47
2019-04-05T04:40:30.331Z,5.40
2019-04-05T04:41:32.006Z,5.48
2019-04-05T04:42:30.344Z,5.48
2019-04-05T04:43:30.275Z,5.42
2019-04-05T04:44:30.354Z,5.49
2019-04-05T04:45:30.243Z,5.48
2019-04-05T04:46:30.318Z,5.45
2019-04-05T04:47:30.219Z,5.44
2019-04-05T04:48:30.290Z,5.44
2019-04-05T04:49:30.200Z,5.52
2019-04-05T04:50:30.301Z,5.51
2019-04-05T04:51:30.215Z,5.47
2019-04-05T04:52:31.493Z,5.51
2019-04-05T04:53:30.276Z,5.48
2019-04-05T04:54:30.216Z,5.48
2019-04-05T04:55:30.132Z,5.42
2019-04-05T04:56:30.263Z,5.47
2019-04-05T04:57:30.133Z,5.48
2019-04-05T04:58:30.245Z,5.44
2019-04-05T04:59:30.109Z,5.44
2019-04-05T05:00:30.164Z,5.42
2019-04-05T05:01:30.069Z,5.47
2019-04-05T05:02:30.214Z,5.45
2019-04-05T05:03:30.073Z,5.45
2019-04-05T05:04:30.087Z,5.49
2019-04-05T05:05:30.024Z,5.44
2019-04-05T05:06:30.107Z,5.49
2019-04-05T05:07:30.026Z,5.41
2019-04-05T05:08:30.125Z,5.40
2019-04-05T05:09:29.979Z,5.48
2019-04-05T05:10:30.068Z,5.44
2019-04-05T05:11:29.968Z,5.48
2019-04-05T05:12:30.134Z,5.47
2019-04-05T05:13:29.941Z,5.48
2019-04-05T05:14:30.047Z,5.45
2019-04-05T05:15:29.915Z,5.51
2019-04-05T05:16:29.963Z,5.47
2019-04-05T05:17:38.306Z,5.45
2019-04-05T05:18:30.886Z,5.42
2019-04-05T05:19:29.997Z,5.45
2019-04-05T05:20:29.867Z,5.42
2019-04-05T05:21:29.914Z,5.48
2019-04-05T05:22:29.870Z,5.48
2019-04-05T05:23:29.911Z,5.49
2019-04-05T05:24:29.933Z,5.49
2019-04-05T05:25:29.921Z,5.48
2019-04-05T05:26:29.802Z,5.58
2019-04-05T05:27:29.864Z,5.52
2019-04-05T05:28:32.684Z,5.48
2019-04-05T05:29:29.846Z,5.55
2019-04-05T05:30:29.765Z,5.42
2019-04-05T05:31:29.876Z,5.52
2019-04-05T05:32:29.764Z,5.55
2019-04-05T05:33:29.913Z,5.47
2019-04-05T05:34:29.713Z,5.55
2019-04-05T05:35:29.786Z,5.52
2019-04-05T05:36:29.693Z,5.49
2019-04-05T05:37:32.637Z,5.51
2019-04-05T05:38:29.709Z,5.49
2019-04-05T05:39:29.718Z,5.52
2019-04-05T05:40:35.092Z,5.49
2019-04-05T05:41:30.755Z,5.47
2019-04-05T05:42:29.628Z,5.45
2019-04-05T05:43:29.777Z,5.56
2019-04-05T05:44:29.603Z,5.56
2019-04-05T05:45:29.651Z,5.49
2019-04-05T05:46:29.808Z,5.55
2019-04-05T05:47:29.665Z,5.52
2019-04-05T05:48:31.010Z,5.58
2019-04-05T05:49:29.689Z,5.56
2019-04-05T05:50:29.617Z,5.60
2019-04-05T05:51:29.593Z,5.63
2019-04-05T05:52:29.520Z,5.59
2019-04-05T05:53:29.637Z,5.63
2019-04-05T05:54:29.499Z,5.65
2019-04-05T05:55:30.263Z,5.63
2019-04-05T05:56:29.480Z,5.60
2019-04-05T05:57:29.482Z,5.62
2019-04-05T05:58:29.487Z,5.63
2019-04-05T05:59:30.332Z,5.59
2019-04-05T06:00:31.085Z,5.56
2019-04-05T06:01:29.430Z,5.60
2019-04-05T06:02:29.416Z,5.65
2019-04-05T06:03:29.471Z,5.69
2019-04-05T06:04:29.416Z,5.62
2019-04-05T06:05:29.389Z,5.67
2019-04-05T06:06:29.368Z,5.74
2019-04-05T06:07:29.366Z,5.69
2019-04-05T06:08:29.494Z,5.77
2019-04-05T06:09:29.369Z,5.70
2019-04-05T06:10:29.328Z,5.80
2019-04-05T06:11:29.327Z,5.78
2019-04-05T06:12:29.311Z,5.81
2019-04-05T06:13:29.311Z,5.80
2019-04-05T06:14:29.310Z,5.85
2019-04-05T06:15:29.297Z,5.90
2019-04-05T06:16:29.269Z,5.88
2019-04-05T06:17:29.273Z,5.87
2019-04-05T06:18:29.344Z,5.93
2019-04-05T06:19:29.272Z,5.99
2019-04-05T06:20:29.233Z,6.03
2019-04-05T06:21:29.233Z,5.99
2019-04-05T06:22:29.222Z,5.98
2019-04-05T06:23:33.850Z,6.02
2019-04-05T06:24:30.221Z,6.05
2019-04-05T06:25:29.179Z,6.08
2019-04-05T06:26:29.161Z,6.06
2019-04-05T06:27:29.151Z,6.05
2019-04-05T06:28:29.197Z,6.13
2019-04-05T06:29:29.154Z,6.16
2019-04-05T06:30:29.212Z,6.11
2019-04-05T06:31:29.157Z,6.21
2019-04-05T06:32:29.113Z,6.27
2019-04-05T06:33:31.873Z,6.30
2019-04-05T06:34:29.203Z,6.25
2019-04-05T06:35:29.190Z,6.32
2019-04-05T06:36:29.060Z,6.32
2019-04-05T06:37:29.048Z,6.28
2019-04-05T06:38:29.032Z,6.27
2019-04-05T06:39:29.050Z,6.28
2019-04-05T06:40:40.196Z,6.28
2019-04-05T06:41:30.015Z,6.40
2019-04-05T06:42:29.028Z,6.42
2019-04-05T06:43:28.979Z,6.50
2019-04-05T06:44:28.998Z,6.40
2019-04-05T06:45:28.985Z,6.42
2019-04-05T06:46:28.955Z,6.38
2019-04-05T06:47:28.949Z,6.32
2019-04-05T06:48:29.691Z,6.32
2019-04-05T06:49:28.916Z,6.46
2019-04-05T06:50:28.966Z,6.46
2019-04-05T06:51:28.890Z,6.55
2019-04-05T06:52:28.931Z,6.53
2019-04-05T06:53:28.872Z,6.63
2019-04-05T06:54:28.865Z,6.61
2019-04-05T06:55:28.871Z,6.63
2019-04-05T06:56:28.840Z,6.63
2019-04-05T06:57:28.823Z,6.72
2019-04-05T06:58:29.477Z,6.75
2019-04-05T06:59:28.839Z,6.76
2019-04-05T07:00:28.833Z,6.79
2019-04-05T07:01:28.795Z,6.75
2019-04-05T07:02:28.790Z,6.81
2019-04-05T07:03:28.789Z,6.82
2019-04-05T07:04:30.998Z,6.82
2019-04-05T07:05:28.772Z,6.87
2019-04-05T07:06:28.768Z,6.96
2019-04-05T07:07:28.714Z,6.82
2019-04-05T07:08:28.715Z,6.87
2019-04-05T07:09:28.694Z,6.83
2019-04-05T07:10:28.718Z,6.71
2019-04-05T07:11:28.702Z,6.58
2019-04-05T07:12:28.685Z,6.61
2019-04-05T07:13:28.650Z,6.68
2019-04-05T07:14:28.651Z,6.58
2019-04-05T07:15:28.664Z,6.68
2019-04-05T07:16:28.664Z,6.71
2019-04-05T07:17:28.612Z,6.78
2019-04-05T07:18:34.283Z,6.75
2019-04-05T07:19:29.591Z,6.76
2019-04-05T07:20:28.582Z,6.76
2019-04-05T07:21:28.587Z,6.79
2019-04-05T07:22:38.534Z,6.94
2019-04-05T07:23:29.539Z,6.89
2019-04-05T07:24:28.535Z,7.04
2019-04-05T07:25:29.433Z,6.94
2019-04-05T07:26:28.562Z,6.94
2019-04-05T07:27:28.494Z,6.91
2019-04-05T07:28:28.498Z,6.91
2019-04-05T07:29:28.476Z,6.79
2019-04-05T07:30:28.953Z,6.90
2019-04-05T07:31:28.476Z,6.91
2019-04-05T07:32:31.134Z,6.93
2019-04-05T07:33:28.432Z,6.96
2019-04-05T07:34:28.486Z,6.96
2019-04-05T07:35:33.688Z,7.01
2019-04-05T07:36:29.544Z,6.91
2019-04-05T07:37:28.406Z,6.89
2019-04-05T07:38:28.504Z,6.81
2019-04-05T07:39:28.383Z,6.91
2019-04-05T07:40:28.414Z,7.01
2019-04-05T07:41:28.376Z,7.05
2019-04-05T07:42:28.427Z,6.93
2019-04-05T07:43:28.317Z,7.01
2019-04-05T07:44:28.445Z,7.15
2019-04-05T07:45:28.658Z,7.16
2019-04-05T07:46:28.379Z,7.26
2019-04-05T07:47:28.312Z,7.16
2019-04-05T07:48:28.365Z,7.14
2019-04-05T07:49:28.274Z,7.07
2019-04-05T07:50:28.278Z,6.94
2019-04-05T07:51:28.226Z,7.16
2019-04-05T07:52:28.334Z,7.19
2019-04-05T07:53:28.214Z,7.19
2019-04-05T07:54:28.327Z,7.21
2019-04-05T07:55:28.191Z,7.23
2019-04-05T07:56:28.243Z,7.27
2019-04-05T07:57:28.191Z,7.34
2019-04-05T07:58:28.225Z,7.39
2019-04-05T07:59:28.150Z,7.50
2019-04-05T08:00:28.239Z,7.62
2019-04-05T08:01:28.117Z,7.63
2019-04-05T08:02:28.179Z,7.73
2019-04-05T08:03:28.110Z,7.76
2019-04-05T08:05:29.130Z,7.95
2019-04-05T08:06:28.182Z,8.02
2019-04-05T08:07:28.060Z,7.95
2019-04-05T08:08:28.132Z,7.85
2019-04-05T08:09:28.030Z,7.92
2019-04-05T08:10:28.110Z,7.94
2019-04-05T08:11:28.017Z,8.03
2019-04-05T08:12:28.154Z,8.17
2019-04-05T08:13:27.994Z,8.14
2019-04-05T08:14:28.040Z,8.17
2019-04-05T08:15:27.988Z,8.14
2019-04-05T08:16:27.962Z,8.27
2019-04-05T08:17:27.995Z,8.28
2019-04-05T08:18:27.970Z,8.36
2019-04-05T08:19:27.936Z,8.24
2019-04-05T08:20:27.917Z,8.24
2019-04-05T08:21:27.899Z,8.22
2019-04-05T08:22:27.914Z,8.20
2019-04-05T08:23:27.933Z,8.31
2019-04-05T08:24:27.898Z,8.28
2019-04-05T08:25:27.860Z,8.34
2019-04-05T08:26:27.850Z,8.36
2019-04-05T08:27:27.846Z,8.39
2019-04-05T08:28:29.635Z,8.27
2019-04-05T08:29:27.820Z,8.21
2019-04-05T08:30:27.805Z,8.24
2019-04-05T08:31:27.790Z,8.10
2019-04-05T08:32:27.821Z,8.10
2019-04-05T08:33:27.813Z,8.09
2019-04-05T08:34:27.783Z,7.94
2019-04-05T08:35:27.754Z,7.85
2019-04-05T08:36:27.751Z,7.84
2019-04-05T08:37:27.735Z,7.70
2019-04-05T08:38:27.760Z,7.74
2019-04-05T08:39:27.707Z,7.77
2019-04-05T08:40:27.705Z,7.76
2019-04-05T08:41:27.689Z,7.77
2019-04-05T08:42:27.680Z,7.84
2019-04-05T08:43:27.676Z,7.77
2019-04-05T08:44:27.690Z,7.63
2019-04-05T08:45:27.657Z,7.57
2019-04-05T08:46:27.634Z,7.52
2019-04-05T08:47:27.632Z,7.66
2019-04-05T08:48:27.758Z,7.58
2019-04-05T08:49:27.665Z,7.70
2019-04-05T08:50:27.595Z,7.73
2019-04-05T08:51:27.612Z,7.70
2019-04-05T08:52:27.575Z,7.74
2019-04-05T08:53:27.612Z,7.77
2019-04-05T08:54:33.239Z,7.71
2019-04-05T08:55:28.541Z,7.76
2019-04-05T08:56:27.532Z,7.71
2019-04-05T08:57:27.513Z,7.60
2019-04-05T08:58:33.190Z,7.62
2019-04-05T08:59:28.532Z,7.51
2019-04-05T09:00:27.481Z,7.48
2019-04-05T09:01:27.473Z,7.47
2019-04-05T09:02:27.480Z,7.47
2019-04-05T09:03:27.448Z,7.62
2019-04-05T09:04:27.470Z,7.58
2019-04-05T09:05:27.432Z,7.54
2019-04-05T09:06:27.422Z,7.47
2019-04-05T09:07:27.407Z,7.52
2019-04-05T09:08:27.393Z,7.51
2019-04-05T09:09:27.421Z,7.48
2019-04-05T09:10:27.397Z,7.44
2019-04-05T09:11:27.351Z,7.44
2019-04-05T09:12:27.352Z,7.44
2019-04-05T09:13:27.342Z,7.39
2019-04-05T09:14:27.335Z,7.39
2019-04-05T09:15:27.350Z,7.36
2019-04-05T09:16:27.316Z,7.42
2019-04-05T09:17:27.298Z,7.41
2019-04-05T09:18:27.289Z,7.52
2019-04-05T09:19:27.289Z,7.51
2019-04-05T09:20:27.303Z,7.70
2019-04-05T09:21:27.250Z,7.71
2019-04-05T09:22:27.269Z,7.88
2019-04-05T09:23:27.230Z,8.00
2019-04-05T09:24:27.229Z,8.02
2019-04-05T09:25:27.289Z,7.94
2019-04-05T09:26:27.202Z,8.06
2019-04-05T09:27:27.187Z,7.95
2019-04-05T09:28:27.175Z,7.96
2019-04-05T09:29:27.176Z,8.00
2019-04-05T09:30:27.225Z,8.00
2019-04-05T09:31:27.142Z,8.00
2019-04-05T09:32:27.144Z,7.94
2019-04-05T09:33:27.125Z,7.99
2019-04-05T09:34:27.140Z,7.95
2019-04-05T09:35:27.120Z,7.92
2019-04-05T09:36:27.099Z,7.92
2019-04-05T09:37:27.109Z,7.88
2019-04-05T09:38:27.068Z,7.71
2019-04-05T09:39:27.067Z,7.74
2019-04-05T09:40:27.083Z,7.52
2019-04-05T09:41:27.033Z,7.45
2019-04-05T09:42:27.035Z,7.52
2019-04-05T09:43:27.018Z,7.52
2019-04-05T09:49:36.965Z,7.34
2019-04-05T09:50:26.038Z,7.32
2019-04-05T09:51:26.055Z,7.32
2019-04-05T09:52:26.016Z,7.37
2019-04-05T09:53:26.008Z,7.37
2019-04-05T09:54:25.995Z,7.39
2019-04-05T09:55:25.989Z,7.47
2019-04-05T09:56:26.129Z,7.42
2019-04-05T09:57:25.977Z,7.54
2019-04-05T09:58:25.967Z,7.41
2019-04-05T09:59:25.948Z,7.48
2019-04-05T10:00:25.936Z,7.54
2019-04-05T10:01:25.952Z,7.69
2019-04-05T10:02:25.902Z,7.69
2019-04-05T10:03:25.904Z,7.70
2019-04-05T10:04:25.936Z,7.85
2019-04-05T10:05:25.879Z,7.85
2019-04-05T10:06:25.895Z,7.85
2019-04-05T10:07:25.883Z,7.96
2019-04-05T10:08:25.842Z,7.99
2019-04-05T10:09:25.849Z,8.04
2019-04-05T10:10:25.818Z,8.07
2019-04-05T10:11:25.821Z,8.02
2019-04-05T10:12:25.827Z,7.96
2019-04-05T10:13:25.791Z,8.09
2019-04-05T10:14:25.771Z,8.06
2019-04-05T10:15:25.768Z,8.12
2019-04-05T10:16:25.747Z,8.10
2019-04-05T10:17:25.796Z,8.03
2019-04-05T10:18:25.752Z,8.07
2019-04-05T10:19:25.751Z,7.99
2019-04-05T10:20:25.705Z,7.94
2019-04-05T10:21:25.703Z,8.03
2019-04-05T10:22:25.715Z,8.13
2019-04-05T10:23:25.677Z,7.96
2019-04-05T10:24:25.672Z,7.95
2019-04-05T10:25:25.806Z,8.00
2019-04-05T10:26:25.652Z,8.00
2019-04-05T10:27:25.725Z,7.95
2019-04-05T10:28:25.691Z,7.95
2019-04-05T10:30:26.667Z,8.02
2019-04-05T10:32:26.653Z,7.95
2019-04-05T10:33:27.857Z,8.00
2019-04-05T10:34:25.550Z,8.00
2019-04-05T10:35:27.895Z,7.91
2019-04-05T10:36:25.534Z,7.89
2019-04-05T10:37:28.024Z,7.89
2019-04-05T10:38:25.545Z,7.74
2019-04-05T10:39:28.106Z,7.79
2019-04-05T10:40:25.492Z,7.86
2019-04-05T10:41:28.224Z,7.79
2019-04-05T10:42:25.507Z,7.89
2019-04-05T10:44:26.513Z,7.96
2019-04-05T10:45:28.575Z,7.95
2019-04-05T10:46:25.438Z,8.10
2019-04-05T10:47:28.263Z,8.12
2019-04-05T10:48:25.441Z,8.07
2019-04-05T10:50:26.451Z,8.09
2019-04-05T10:52:26.414Z,8.10
2019-04-05T10:53:30.371Z,8.07
2019-04-05T10:54:25.346Z,8.09
2019-04-05T10:56:26.375Z,7.99
2019-04-05T10:58:26.385Z,8.00
2019-04-05T11:00:26.333Z,7.99
2019-04-05T11:02:26.381Z,8.09
2019-04-05T11:03:28.710Z,8.07
2019-04-05T11:04:25.262Z,8.13
2019-04-05T11:06:26.287Z,8.24
2019-04-05T11:08:26.272Z,8.27
2019-04-05T11:10:26.270Z,8.13
2019-04-05T11:12:26.217Z,8.18
2019-04-05T11:13:28.674Z,8.10
2019-04-05T11:14:25.123Z,8.21
2019-04-05T11:15:31.034Z,8.10
2019-04-05T11:16:25.113Z,8.25
2019-04-05T11:17:28.886Z,8.14
2019-04-05T11:18:25.103Z,8.18
2019-04-05T11:19:30.265Z,8.20
2019-04-05T11:20:25.067Z,8.18
2019-04-05T11:21:29.038Z,8.10
2019-04-05T11:22:25.061Z,8.09
2019-04-05T11:24:28.446Z,8.10
2019-04-05T11:25:25.005Z,8.12
2019-04-05T11:26:27.106Z,8.04
2019-04-05T11:27:24.995Z,8.10
2019-04-05T11:28:27.252Z,7.95
2019-04-05T11:29:25.013Z,7.91
2019-04-05T11:30:27.038Z,7.96
2019-04-05T11:31:24.958Z,8.07
2019-04-05T11:32:24.996Z,8.09
2019-04-05T11:33:24.918Z,8.17
2019-04-05T11:34:25.047Z,8.13
2019-04-05T11:35:24.898Z,8.07
2019-04-05T11:36:24.931Z,8.27
2019-04-05T11:37:24.868Z,8.29
2019-04-05T11:38:24.933Z,8.24
2019-04-05T11:39:24.889Z,8.27
2019-04-05T11:40:24.950Z,8.32
2019-04-05T11:41:24.823Z,8.24
2019-04-05T11:42:24.864Z,8.27
2019-04-05T11:43:26.946Z,8.32
2019-04-05T11:44:24.899Z,8.37
2019-04-05T11:45:24.807Z,8.32
2019-04-05T11:46:24.890Z,8.34
2019-04-05T11:47:24.769Z,8.39
2019-04-05T11:48:24.800Z,8.31
2019-04-05T11:49:24.794Z,8.29
2019-04-05T11:50:34.460Z,8.37
2019-04-05T11:51:25.757Z,8.40
2019-04-05T11:52:24.824Z,8.45
2019-04-05T11:53:24.710Z,8.45
2019-04-05T11:54:24.768Z,8.42
2019-04-05T11:55:24.681Z,8.40
2019-04-05T11:56:24.769Z,8.42
2019-04-05T11:57:24.654Z,8.45
2019-04-05T11:58:24.767Z,8.40
2019-04-05T11:59:24.676Z,8.42
2019-04-05T12:00:24.676Z,8.32
2019-04-05T12:01:24.605Z,8.34
2019-04-05T12:02:24.693Z,8.45
2019-04-05T12:03:24.600Z,8.36
2019-04-05T12:04:24.751Z,8.32
2019-04-05T12:05:26.967Z,8.32
2019-04-05T12:06:24.611Z,8.31
2019-04-05T12:07:26.622Z,8.32
2019-04-05T12:08:24.645Z,8.39
2019-04-05T12:09:24.569Z,8.34
2019-04-05T12:10:24.542Z,8.27
2019-04-05T12:11:24.502Z,8.20
2019-04-05T12:12:25.702Z,8.13
2019-04-05T12:13:24.499Z,8.04
2019-04-05T12:14:30.417Z,8.07
2019-04-05T12:15:25.491Z,8.00
2019-04-05T12:16:24.479Z,8.10
2019-04-05T12:17:24.455Z,8.12
2019-04-05T12:18:24.505Z,8.09
2019-04-05T12:19:24.422Z,8.14
2019-04-05T12:20:24.556Z,8.17
2019-04-05T12:21:24.402Z,8.20
2019-04-05T12:22:24.432Z,8.10
2019-04-05T12:23:24.391Z,8.20
2019-04-05T12:24:24.448Z,8.07
2019-04-05T12:25:24.386Z,8.09
2019-04-05T12:26:24.656Z,8.14
2019-04-05T12:27:24.499Z,8.14
2019-04-05T12:28:24.361Z,8.03
2019-04-05T12:29:24.320Z,8.06
2019-04-05T12:30:24.746Z,8.17
2019-04-05T12:31:24.293Z,8.14
2019-04-05T12:32:33.610Z,8.17
2019-04-05T12:33:25.261Z,8.17
2019-04-05T12:35:25.321Z,8.25
2019-04-05T12:36:24.417Z,8.13
2019-04-05T12:37:24.230Z,8.10
2019-04-05T12:38:28.453Z,8.17
2019-04-05T12:39:25.205Z,8.12
2019-04-05T12:40:24.278Z,8.07
2019-04-05T12:41:24.206Z,8.27
2019-04-05T12:42:24.268Z,8.27
2019-04-05T12:43:24.165Z,8.27
2019-04-05T12:44:24.265Z,8.36
2019-04-05T12:45:24.137Z,8.31
2019-04-05T12:46:24.518Z,8.36
2019-04-05T12:47:24.112Z,8.21
2019-04-05T12:48:24.198Z,8.20
2019-04-05T12:49:24.118Z,8.20
2019-04-05T12:50:24.140Z,8.20
2019-04-05T12:51:24.237Z,8.21
2019-04-05T12:52:27.409Z,8.18
2019-04-05T12:53:24.665Z,8.09
2019-04-05T12:54:24.149Z,8.12
2019-04-05T12:55:24.562Z,8.17
2019-04-05T12:56:26.606Z,8.13
2019-04-05T12:57:27.492Z,8.12
2019-04-05T12:58:25.988Z,8.10
2019-04-05T12:59:25.558Z,8.14
2019-04-05T13:00:26.072Z,8.14
2019-04-05T13:01:24.068Z,8.12
2019-04-05T13:02:33.338Z,8.10
2019-04-05T13:03:24.944Z,8.25
2019-04-05T13:04:23.997Z,8.25
2019-04-05T13:05:23.923Z,8.22
2019-04-05T13:06:24.065Z,8.10
2019-04-05T13:07:23.920Z,8.20
2019-04-05T13:08:23.927Z,8.14
2019-04-05T13:09:24.701Z,8.14
2019-04-05T13:10:26.181Z,8.17
2019-04-05T13:11:26.645Z,8.18
2019-04-05T13:12:26.320Z,8.22
2019-04-05T13:13:26.564Z,8.20
2019-04-05T13:14:26.196Z,8.29
2019-04-05T13:15:23.897Z,8.24
2019-04-05T13:16:23.880Z,8.27
2019-04-05T13:17:24.031Z,8.27
2019-04-05T13:18:25.358Z,8.25
2019-04-05T13:19:23.788Z,8.37
2019-04-05T13:20:23.807Z,8.36
2019-04-05T13:21:27.377Z,8.34
2019-04-05T13:22:24.290Z,8.29
2019-04-05T13:23:23.850Z,8.29
2019-04-05T13:24:23.854Z,8.22
2019-04-05T13:25:23.724Z,8.09
2019-04-05T13:26:26.309Z,8.18
2019-04-05T13:27:23.749Z,8.13
2019-04-05T13:28:48.269Z,8.14
2019-04-05T13:29:23.691Z,8.18
2019-04-05T13:30:23.670Z,8.12
2019-04-05T13:31:23.782Z,8.17
2019-04-05T13:32:23.659Z,8.13
2019-04-05T13:33:24.059Z,8.06
2019-04-05T13:34:26.007Z,8.13
2019-04-05T13:35:23.703Z,8.06
2019-04-05T13:36:23.582Z,8.02
2019-04-05T13:37:24.682Z,8.09
2019-04-05T13:38:23.591Z,8.17
2019-04-05T13:39:23.624Z,8.25